Time;durP1;ratioP1;P1;durP2;ratioP2;P2;SDS_P1;SDS_P2;PMS_P1;PMS_P2;Temp;Humidity;BMP_temperature;BMP_pressure;BME280_temperature;BME280_humidity;BME280_pressure;Samples;Min_cycle;Max_cycle;Signal;HPM_P1;HPM_P2
2021/01/21 00:01:02;;;;;;;6.47;3.60;;;9.50;49.40;;;;;;5026530;28;20330;-42
2021/01/21 00:03:27;;;;;;;3.97;3.53;;;9.70;48.60;;;;;;5024075;28;20197;-42
2021/01/21 00:05:53;;;;;;;4.00;3.60;;;9.70;48.50;;;;;;5028384;28;20241;-42
2021/01/21 00:08:18;;;;;;;4.10;3.33;;;9.70;48.50;;;;;;5022055;28;20193;-42
2021/01/21 00:10:44;;;;;;;4.20;3.20;;;9.90;48.10;;;;;;5030425;28;20244;-42
2021/01/21 00:13:09;;;;;;;4.17;3.10;;;9.90;48.10;;;;;;5025529;28;20235;-42
2021/01/21 00:15:35;;;;;;;4.47;3.57;;;10.00;47.10;;;;;;5022584;28;20205;-42
2021/01/21 00:18:00;;;;;;;7.27;4.43;;;10.00;47.40;;;;;;5018300;28;20246;-42
2021/01/21 00:20:27;;;;;;;5.37;3.97;;;9.90;48.30;;;;;;5021067;28;20193;-42
2021/01/21 00:22:52;;;;;;;4.80;3.50;;;10.10;47.10;;;;;;5018318;28;20193;-42
2021/01/21 00:25:18;;;;;;;3.30;2.50;;;10.20;46.40;;;;;;5025013;28;20436;-42
2021/01/21 00:27:44;;;;;;;2.90;2.40;;;10.50;45.70;;;;;;5025087;28;20220;-42
2021/01/21 00:30:10;;;;;;;4.03;2.63;;;10.70;45.00;;;;;;5026789;28;20232;-42
2021/01/21 00:32:36;;;;;;;2.30;2.20;;;11.00;44.40;;;;;;5018405;28;20197;-42
2021/01/21 00:35:01;;;;;;;2.67;2.33;;;11.00;44.80;;;;;;5015265;28;20444;-42
2021/01/21 00:37:27;;;;;;;2.73;2.53;;;11.00;45.30;;;;;;5027342;28;20328;-42
2021/01/21 00:39:52;;;;;;;2.83;2.63;;;11.00;45.20;;;;;;5024512;28;20271;-42
2021/01/21 00:42:18;;;;;;;3.73;3.10;;;11.10;45.10;;;;;;5029053;28;20208;-42
2021/01/21 00:44:44;;;;;;;3.40;2.27;;;11.20;45.20;;;;;;5028499;28;20204;-42
2021/01/21 00:47:09;;;;;;;6.00;2.60;;;11.00;43.90;;;;;;5023402;28;20202;-42
2021/01/21 00:49:35;;;;;;;3.23;2.50;;;10.70;42.80;;;;;;5016144;28;20228;-42
2021/01/21 00:52:00;;;;;;;3.83;2.43;;;10.90;44.10;;;;;;5026248;28;20216;-42
2021/01/21 00:54:26;;;;;;;3.50;3.20;;;11.10;43.90;;;;;;5028635;28;20233;-42
2021/01/21 00:56:51;;;;;;;2.60;2.10;;;11.40;44.00;;;;;;5018252;28;20675;-42
2021/01/21 00:59:17;;;;;;;3.50;2.93;;;11.40;43.20;;;;;;5027046;28;20242;-42
2021/01/21 01:01:42;;;;;;;3.87;3.30;;;11.60;43.40;;;;;;5023436;28;21931;-42
2021/01/21 01:04:08;;;;;;;3.53;3.23;;;11.60;43.90;;;;;;5023534;28;20198;-42
2021/01/21 01:06:34;;;;;;;3.67;3.37;;;11.50;44.50;;;;;;5021443;28;20354;-42
2021/01/21 01:08:59;;;;;;;4.40;3.37;;;11.50;44.50;;;;;;5019904;28;20717;-42
2021/01/21 01:11:25;;;;;;;4.23;2.97;;;11.20;44.90;;;;;;5017043;28;20206;-42
2021/01/21 01:13:50;;;;;;;3.57;2.70;;;11.20;45.20;;;;;;5028377;28;20282;-42
2021/01/21 01:16:16;;;;;;;3.93;2.93;;;11.20;44.70;;;;;;5026421;28;20888;-42
2021/01/21 01:18:41;;;;;;;10.13;4.17;;;11.30;44.50;;;;;;5021881;28;20201;-42
2021/01/21 01:21:07;;;;;;;4.60;3.10;;;11.40;44.10;;;;;;5020488;28;20704;-42
2021/01/21 01:23:32;;;;;;;2.77;2.53;;;11.40;43.70;;;;;;5020535;28;20204;-42
2021/01/21 01:25:58;;;;;;;2.63;2.43;;;11.50;43.60;;;;;;5028747;28;20200;-42
2021/01/21 01:28:24;;;;;;;3.30;2.80;;;11.20;43.30;;;;;;5020550;28;20204;-42
2021/01/21 01:30:49;;;;;;;4.93;3.50;;;11.10;45.00;;;;;;5028010;28;20229;-42
2021/01/21 01:33:15;;;;;;;3.33;3.00;;;10.90;46.00;;;;;;5025020;28;20197;-42
2021/01/21 01:35:41;;;;;;;3.10;2.80;;;10.70;46.20;;;;;;5025823;28;20195;-42
2021/01/21 01:38:06;;;;;;;2.97;2.60;;;10.40;46.00;;;;;;5028471;28;20197;-42
2021/01/21 01:40:32;;;;;;;3.43;2.67;;;10.30;46.00;;;;;;5019092;28;20565;-41
2021/01/21 01:42:58;;;;;;;3.03;2.60;;;10.20;46.00;;;;;;5023687;28;20739;-42
2021/01/21 01:45:23;;;;;;;2.43;2.23;;;10.10;46.10;;;;;;5028789;28;20200;-42
2021/01/21 01:47:49;;;;;;;4.03;2.53;;;10.40;45.80;;;;;;5023352;28;20193;-42
2021/01/21 01:50:16;;;;;;;3.70;2.70;;;10.70;45.40;;;;;;5016864;28;20692;-41
2021/01/21 01:52:42;;;;;;;6.10;2.40;;;11.00;45.00;;;;;;5015615;28;21521;-42
2021/01/21 01:55:13;;;;;;;3.10;2.20;;;11.20;44.50;;;;;;5025122;28;20782;-42
2021/01/21 01:57:40;;;;;;;2.97;2.27;;;11.20;43.50;;;;;;5025650;28;20797;-42
2021/01/21 02:00:08;;;;;;;4.27;2.17;;;11.20;43.30;;;;;;5027274;28;20498;-42
2021/01/21 02:02:33;;;;;;;1.80;1.70;;;11.30;43.00;;;;;;5027029;28;20451;-42
2021/01/21 02:05:01;;;;;;;3.47;2.10;;;11.10;42.60;;;;;;5027738;28;20432;-42
2021/01/21 02:07:27;;;;;;;3.90;1.73;;;11.10;42.70;;;;;;5022807;28;20351;-42
2021/01/21 02:09:55;;;;;;;1.80;1.70;;;11.10;42.50;;;;;;5025036;28;20491;-42
2021/01/21 02:12:48;;;;;;;3.47;1.60;;;10.90;42.70;;;;;;5015963;28;20953;-42
2021/01/21 02:15:44;;;;;;;1.63;1.37;;;11.20;42.40;;;;;;5022153;28;20474;-42
2021/01/21 02:18:42;;;;;;;1.80;1.53;;;11.30;41.70;;;;;;5024940;28;20448;-42
2021/01/21 02:21:49;;;;;;;1.53;1.43;;;11.40;41.20;;;;;;5024160;28;20436;-42
2021/01/21 02:24:20;;;;;;;1.50;1.33;;;11.60;41.00;;;;;;5018433;28;20460;-42
2021/01/21 02:26:57;;;;;;;1.40;1.10;;;11.60;41.00;;;;;;5022006;28;20484;-42
2021/01/21 02:29:27;;;;;;;2.07;1.60;;;11.60;40.90;;;;;;5017257;28;20487;-42
2021/01/21 02:32:08;;;;;;;1.83;1.10;;;11.40;41.40;;;;;;5014996;28;20482;-42
2021/01/21 02:34:51;;;;;;;1.33;1.23;;;11.40;41.70;;;;;;5028215;28;20444;-42
2021/01/21 02:37:42;;;;;;;1.10;1.03;;;11.50;41.80;;;;;;5028814;28;20579;-42
2021/01/21 02:40:09;;;;;;;1.50;1.40;;;11.40;42.00;;;;;;5019567;28;20440;-42
2021/01/21 02:42:48;;;;;;;2.27;1.53;;;11.50;42.10;;;;;;5028653;28;20476;-42
2021/01/21 02:45:15;;;;;;;1.47;1.17;;;11.40;40.90;;;;;;5018497;28;20451;-42
2021/01/21 02:47:41;;;;;;;1.87;0.97;;;11.40;40.60;;;;;;5025309;28;20449;-42
2021/01/21 02:50:08;;;;;;;3.70;1.00;;;11.80;41.10;;;;;;5029434;28;20500;-42
2021/01/21 02:52:47;;;;;;;1.50;1.40;;;11.90;41.30;;;;;;5023272;28;20479;-42
2021/01/21 02:55:29;;;;;;;1.53;1.10;;;11.90;40.70;;;;;;5028380;28;20450;-42
2021/01/21 02:58:06;;;;;;;1.27;0.90;;;12.00;40.60;;;;;;5032246;28;20459;-42
2021/01/21 03:00:34;;;;;;;1.97;1.17;;;12.20;40.00;;;;;;5029591;28;20441;-42
2021/01/21 03:03:02;;;;;;;1.80;1.30;;;12.00;38.70;;;;;;5030913;28;20436;-42
2021/01/21 03:05:29;;;;;;;1.30;0.93;;;12.10;39.60;;;;;;5027843;28;20841;-42
2021/01/21 03:07:55;;;;;;;1.17;1.07;;;12.00;39.40;;;;;;5026596;28;20440;-42
2021/01/21 03:10:22;;;;;;;0.97;0.80;;;12.20;39.00;;;;;;5024155;28;20487;-42
2021/01/21 03:12:52;;;;;;;1.30;1.20;;;12.40;39.00;;;;;;5022742;28;20436;-42
2021/01/21 03:15:19;;;;;;;1.20;1.10;;;12.80;38.60;;;;;;5028089;28;20474;-42
2021/01/21 03:17:45;;;;;;;1.40;1.30;;;13.00;38.40;;;;;;5022916;28;20447;-42
2021/01/21 03:20:11;;;;;;;1.17;1.07;;;13.00;38.00;;;;;;5027729;28;20950;-42
2021/01/21 03:22:37;;;;;;;1.97;1.20;;;12.80;37.60;;;;;;5029599;28;20679;-42
2021/01/21 03:25:03;;;;;;;1.43;1.20;;;12.80;37.40;;;;;;5025210;28;20444;-42
2021/01/21 03:27:29;;;;;;;2.83;1.03;;;12.60;37.40;;;;;;5030005;28;20551;-42
2021/01/21 03:29:54;;;;;;;1.30;0.90;;;12.60;37.40;;;;;;5028367;28;20487;-42
2021/01/21 03:32:20;;;;;;;1.10;0.90;;;12.40;37.50;;;;;;5029801;28;20621;-42
2021/01/21 03:34:46;;;;;;;2.63;1.20;;;12.40;37.20;;;;;;5025573;28;20191;-42
2021/01/21 03:37:11;;;;;;;1.53;1.27;;;12.60;37.10;;;;;;5025647;28;20607;-42
2021/01/21 03:39:37;;;;;;;5.20;1.10;;;12.70;36.90;;;;;;5023990;28;20445;-43
2021/01/21 03:42:03;;;;;;;1.20;1.10;;;12.90;36.40;;;;;;5019638;28;20268;-42
2021/01/21 03:44:28;;;;;;;1.23;1.00;;;13.10;36.30;;;;;;5028193;28;20197;-42
2021/01/21 03:46:54;;;;;;;1.13;0.90;;;13.20;36.10;;;;;;5031011;28;20272;-42
2021/01/21 03:49:19;;;;;;;2.50;1.20;;;13.10;36.30;;;;;;5025825;28;20229;-42
2021/01/21 03:51:45;;;;;;;1.87;1.30;;;13.20;36.50;;;;;;5027746;28;20197;-42
2021/01/21 03:54:11;;;;;;;2.20;1.03;;;13.40;36.70;;;;;;5024910;28;20237;-42
2021/01/21 03:56:36;;;;;;;1.90;1.60;;;13.50;36.90;;;;;;5022180;28;20273;-42
2021/01/21 03:59:03;;;;;;;1.70;1.50;;;13.40;36.80;;;;;;5020994;28;20641;-42
2021/01/21 04:01:28;;;;;;;1.30;1.00;;;13.30;36.80;;;;;;5024170;28;20201;-42
2021/01/21 04:03:54;;;;;;;1.40;1.30;;;13.20;37.00;;;;;;5022773;28;20498;-42
2021/01/21 04:06:19;;;;;;;3.97;1.67;;;13.10;36.80;;;;;;5030838;28;20193;-42
2021/01/21 04:08:45;;;;;;;1.60;1.47;;;13.10;36.90;;;;;;5028073;28;20223;-44
2021/01/21 04:11:11;;;;;;;1.93;1.00;;;13.10;36.90;;;;;;5027579;28;20200;-42
2021/01/21 04:13:36;;;;;;;1.63;1.33;;;13.20;37.20;;;;;;5028116;28;20224;-42
2021/01/21 04:16:02;;;;;;;1.23;1.13;;;13.20;37.10;;;;;;5029679;28;20201;-42
2021/01/21 04:18:27;;;;;;;2.60;1.30;;;13.30;37.50;;;;;;5019972;28;20217;-42
2021/01/21 04:20:53;;;;;;;2.50;1.30;;;13.40;37.20;;;;;;5030201;28;20197;-42
2021/01/21 04:23:18;;;;;;;1.73;1.10;;;13.40;37.00;;;;;;5018172;28;20204;-42
2021/01/21 04:25:44;;;;;;;2.10;1.33;;;13.40;37.00;;;;;;5028304;28;20193;-42
2021/01/21 04:28:10;;;;;;;6.57;1.47;;;13.40;37.10;;;;;;5027286;28;20276;-42
2021/01/21 04:30:35;;;;;;;2.80;1.30;;;13.40;36.80;;;;;;5024938;28;20271;-42
2021/01/21 04:33:01;;;;;;;1.80;1.50;;;13.40;36.70;;;;;;5028871;28;20204;-42
2021/01/21 04:35:26;;;;;;;1.50;1.40;;;13.30;36.60;;;;;;5026762;28;20193;-42
2021/01/21 04:37:54;;;;;;;2.07;1.30;;;13.40;37.10;;;;;;5025476;28;20209;-41
2021/01/21 04:40:20;;;;;;;1.63;1.20;;;13.40;36.90;;;;;;5024267;28;20193;-41
2021/01/21 04:42:46;;;;;;;2.20;1.33;;;13.50;36.90;;;;;;5019561;28;20455;-42
2021/01/21 04:45:12;;;;;;;1.53;1.33;;;13.60;37.00;;;;;;5027611;28;20440;-42
2021/01/21 04:47:38;;;;;;;2.07;1.53;;;13.40;36.40;;;;;;5027117;28;20436;-41
2021/01/21 04:50:05;;;;;;;5.50;1.47;;;13.30;36.60;;;;;;5018755;28;20742;-41
2021/01/21 04:52:37;;;;;;;3.40;1.40;;;13.30;36.60;;;;;;5023666;28;20505;-42
2021/01/21 04:55:09;;;;;;;2.43;1.50;;;13.30;36.70;;;;;;5023953;28;20517;-42
2021/01/21 04:57:41;;;;;;;1.87;1.47;;;13.30;36.60;;;;;;5026595;28;20531;-41
2021/01/21 05:00:08;;;;;;;1.50;1.40;;;13.30;36.60;;;;;;5027192;28;20542;-41
2021/01/21 05:02:34;;;;;;;2.53;1.33;;;13.40;36.50;;;;;;5021634;28;20836;-42
2021/01/21 05:05:00;;;;;;;1.27;1.00;;;13.40;36.20;;;;;;5021466;28;20527;-41
2021/01/21 05:07:27;;;;;;;0.90;0.90;;;13.40;36.10;;;;;;5027818;28;20193;-41
2021/01/21 05:09:53;;;;;;;2.00;1.10;;;13.30;36.10;;;;;;5024831;28;20767;-42
2021/01/21 05:12:18;;;;;;;1.00;0.90;;;13.10;36.00;;;;;;5023856;28;20535;-42
2021/01/21 05:14:44;;;;;;;2.43;1.00;;;13.20;36.10;;;;;;5022488;28;20288;-41
2021/01/21 05:17:10;;;;;;;4.07;1.90;;;13.10;35.90;;;;;;5028005;28;20193;-41
2021/01/21 05:19:36;;;;;;;1.83;1.00;;;13.20;35.90;;;;;;5025753;28;20328;-42
2021/01/21 05:22:01;;;;;;;1.97;1.17;;;13.20;35.60;;;;;;5022870;28;20185;-42
2021/01/21 05:24:28;;;;;;;1.23;0.90;;;13.30;35.70;;;;;;5017369;28;20935;-42
2021/01/21 05:26:55;;;;;;;1.43;1.33;;;13.40;35.90;;;;;;5024228;28;20657;-42
2021/01/21 05:29:21;;;;;;;0.97;0.97;;;13.50;35.50;;;;;;5025283;28;21017;-41
2021/01/21 05:31:48;;;;;;;0.93;0.93;;;13.50;35.40;;;;;;5026115;28;20468;-41
2021/01/21 05:34:17;;;;;;;1.00;0.67;;;13.50;35.50;;;;;;5027238;28;20463;-42
2021/01/21 05:36:46;;;;;;;1.10;1.00;;;13.60;35.70;;;;;;5026203;28;20444;-41
2021/01/21 05:39:12;;;;;;;1.57;1.17;;;13.50;35.20;;;;;;5020904;28;20875;-41
2021/01/21 05:41:38;;;;;;;3.17;1.10;;;13.60;35.40;;;;;;5023826;28;20562;-42
2021/01/21 05:44:05;;;;;;;0.70;0.70;;;13.60;35.00;;;;;;5024472;28;20225;-42
2021/01/21 05:46:32;;;;;;;2.50;1.20;;;13.60;35.00;;;;;;5028901;28;20444;-42
2021/01/21 05:48:58;;;;;;;1.00;0.90;;;13.60;35.30;;;;;;5022078;28;20574;-42
2021/01/21 05:51:24;;;;;;;2.50;0.90;;;13.60;35.20;;;;;;5028234;28;20530;-43
2021/01/21 05:53:53;;;;;;;1.30;1.20;;;13.70;35.20;;;;;;5023926;28;20237;-43
2021/01/21 05:56:19;;;;;;;0.80;0.77;;;13.80;34.80;;;;;;5018523;28;20494;-43
2021/01/21 05:58:54;;;;;;;3.13;1.00;;;13.80;34.60;;;;;;5014588;28;20834;-43
2021/01/21 06:01:21;;;;;;;1.13;0.97;;;13.90;35.40;;;;;;5025495;28;20210;-43
2021/01/21 06:03:48;;;;;;;4.40;1.30;;;14.10;35.50;;;;;;5017399;28;21294;-43
2021/01/21 06:06:14;;;;;;;1.43;1.20;;;14.00;35.20;;;;;;5023564;28;20442;-43
2021/01/21 06:08:41;;;;;;;1.20;1.10;;;13.90;35.50;;;;;;5018597;28;20947;-43
2021/01/21 06:11:08;;;;;;;1.17;0.80;;;14.00;35.00;;;;;;5023593;28;20558;-44
2021/01/21 06:13:36;;;;;;;1.37;1.00;;;14.00;34.80;;;;;;5029027;28;20448;-43
2021/01/21 06:16:05;;;;;;;2.37;0.90;;;14.00;34.40;;;;;;5027103;28;20478;-43
2021/01/21 06:18:30;;;;;;;0.90;0.90;;;14.10;34.70;;;;;;5025442;28;20828;-44
2021/01/21 06:20:56;;;;;;;0.77;0.70;;;14.10;34.50;;;;;;5028497;28;20431;-43
2021/01/21 06:23:24;;;;;;;1.17;1.00;;;14.00;34.30;;;;;;5022346;28;20209;-43
2021/01/21 06:25:53;;;;;;;1.00;0.90;;;13.90;34.70;;;;;;5024887;28;20448;-43
2021/01/21 06:28:21;;;;;;;1.20;0.80;;;13.90;34.70;;;;;;5025124;28;20460;-43
2021/01/21 06:30:52;;;;;;;1.30;1.10;;;13.80;34.60;;;;;;5028640;28;20498;-43
2021/01/21 06:33:21;;;;;;;1.57;0.90;;;13.80;34.60;;;;;;5024227;28;20440;-43
2021/01/21 06:35:57;;;;;;;1.57;0.90;;;13.90;34.30;;;;;;5030283;28;20455;-43
2021/01/21 06:38:27;;;;;;;1.20;0.77;;;14.00;34.50;;;;;;5030831;28;20457;-43
2021/01/21 06:40:53;;;;;;;0.87;0.80;;;13.90;34.50;;;;;;5028257;28;20582;-43
2021/01/21 06:43:31;;;;;;;1.23;1.13;;;13.90;34.40;;;;;;5018366;28;20451;-43
2021/01/21 06:45:58;;;;;;;1.23;1.00;;;14.00;34.70;;;;;;5020679;28;20479;-43
2021/01/21 06:48:24;;;;;;;0.90;0.90;;;14.00;34.70;;;;;;5024533;28;20447;-43
2021/01/21 06:50:51;;;;;;;1.33;0.90;;;13.90;34.80;;;;;;5030585;28;20498;-43
2021/01/21 06:53:17;;;;;;;1.43;0.90;;;14.00;34.70;;;;;;5020528;28;21272;-43
2021/01/21 06:55:48;;;;;;;1.23;1.13;;;13.90;34.70;;;;;;5033312;28;20435;-43
2021/01/21 06:58:13;;;;;;;3.33;0.70;;;14.00;34.60;;;;;;5031534;28;20467;-44
2021/01/21 07:00:40;;;;;;;1.03;0.83;;;13.90;34.60;;;;;;5031924;28;20479;-44
2021/01/21 07:03:07;;;;;;;0.90;0.70;;;13.80;34.60;;;;;;5031328;28;20201;-45
2021/01/21 07:05:33;;;;;;;2.00;1.03;;;13.80;34.70;;;;;;5028489;28;20436;-43
2021/01/21 07:08:00;;;;;;;1.70;1.00;;;13.80;34.90;;;;;;5031779;28;20531;-43
2021/01/21 07:10:31;;;;;;;2.27;0.97;;;13.70;35.70;;;;;;5025947;28;20234;-44
2021/01/21 07:13:03;;;;;;;0.97;0.97;;;13.80;36.50;;;;;;5015185;28;20523;-43
2021/01/21 07:15:33;;;;;;;1.00;0.90;;;13.70;36.60;;;;;;5013278;28;20437;-43
2021/01/21 07:18:06;;;;;;;1.33;1.23;;;13.80;37.30;;;;;;5020545;28;20799;-43
2021/01/21 07:20:36;;;;;;;1.17;0.80;;;13.90;37.50;;;;;;5027802;28;20524;-43
2021/01/21 07:23:07;;;;;;;1.80;0.87;;;13.80;38.00;;;;;;5015835;28;20815;-44
2021/01/21 07:25:34;;;;;;;1.63;1.00;;;13.80;38.80;;;;;;5020673;28;20447;-44
2021/01/21 07:28:10;;;;;;;1.20;0.87;;;13.70;40.00;;;;;;5014428;28;20425;-43
2021/01/21 07:30:39;;;;;;;1.43;1.10;;;13.90;40.80;;;;;;5019876;28;20498;-43
2021/01/21 07:33:23;;;;;;;2.50;0.87;;;13.90;41.30;;;;;;5013050;28;20421;-43
2021/01/21 07:35:49;;;;;;;1.73;0.93;;;13.80;41.90;;;;;;5017955;28;20462;-43
2021/01/21 07:38:40;;;;;;;1.10;0.87;;;13.90;42.90;;;;;;5012195;28;20425;-44
2021/01/21 07:41:06;;;;;;;1.93;1.17;;;13.80;42.60;;;;;;5022316;28;20444;-43
2021/01/21 07:43:55;;;;;;;0.93;0.90;;;13.90;42.70;;;;;;5012465;28;20459;-43
2021/01/21 07:46:24;;;;;;;1.13;0.90;;;13.90;43.00;;;;;;5024099;28;20206;-44
2021/01/21 07:49:22;;;;;;;1.13;1.03;;;14.10;43.00;;;;;;5022583;28;20448;-43
2021/01/21 07:52:06;;;;;;;1.37;0.70;;;13.90;42.60;;;;;;5021494;28;20448;-43
2021/01/21 07:54:45;;;;;;;2.60;1.00;;;13.80;42.70;;;;;;5023251;28;20447;-43
2021/01/21 07:57:10;;;;;;;2.27;0.80;;;14.00;42.60;;;;;;5029624;28;20942;-43
2021/01/21 07:59:56;;;;;;;1.53;0.70;;;13.90;42.60;;;;;;5021820;28;20972;-43
2021/01/21 08:02:22;;;;;;;0.70;0.70;;;14.00;42.30;;;;;;5028427;28;20500;-42
2021/01/21 08:05:00;;;;;;;1.23;1.07;;;14.10;42.30;;;;;;5021440;28;20538;-42
2021/01/21 08:08:00;;;;;;;1.10;1.00;;;14.30;42.30;;;;;;5027671;28;20792;-43
2021/01/21 08:10:28;;;;;;;1.20;1.10;;;14.70;41.80;;;;;;5012398;28;20492;-42
2021/01/21 08:12:56;;;;;;;2.57;1.20;;;15.30;40.80;;;;;;5023667;28;20831;-42
2021/01/21 08:15:23;;;;;;;2.17;1.30;;;15.90;39.70;;;;;;5025121;28;20451;-42
2021/01/21 08:17:50;;;;;;;1.10;1.00;;;16.10;39.00;;;;;;5028682;28;20526;-42
2021/01/21 08:20:25;;;;;;;1.17;1.10;;;16.20;38.70;;;;;;5018868;28;20646;-42
2021/01/21 08:23:01;;;;;;;1.50;1.00;;;16.10;38.90;;;;;;5020273;28;20436;-42
2021/01/21 08:25:28;;;;;;;1.10;0.90;;;15.60;39.50;;;;;;5025147;28;20910;-44
2021/01/21 08:27:55;;;;;;;1.23;1.13;;;15.50;40.10;;;;;;5026656;28;21178;-43
2021/01/21 08:30:25;;;;;;;3.50;0.80;;;15.50;40.40;;;;;;5015152;28;20575;-43
2021/01/21 08:32:59;;;;;;;1.67;0.90;;;15.50;40.70;;;;;;5028016;28;20460;-42
2021/01/21 08:35:27;;;;;;;6.50;1.30;;;15.30;41.10;;;;;;5023313;28;20447;-42
2021/01/21 08:37:55;;;;;;;1.00;0.90;;;15.10;41.60;;;;;;5022386;28;20436;-42
2021/01/21 08:40:22;;;;;;;1.37;1.10;;;14.90;42.40;;;;;;5022889;28;20531;-42
2021/01/21 08:42:49;;;;;;;0.87;0.73;;;14.90;43.00;;;;;;5014795;28;20464;-43
2021/01/21 08:45:19;;;;;;;3.30;1.20;;;15.10;43.20;;;;;;5016831;28;20429;-42
2021/01/21 08:47:49;;;;;;;0.97;0.87;;;15.20;43.30;;;;;;5027252;28;20507;-42
2021/01/21 08:50:17;;;;;;;2.03;0.80;;;15.10;43.60;;;;;;5025391;28;20979;-44
2021/01/21 08:52:58;;;;;;;4.63;0.83;;;15.10;43.90;;;;;;5022981;28;20484;-42
2021/01/21 08:55:44;;;;;;;0.83;0.83;;;15.10;44.10;;;;;;5027699;28;20479;-43
2021/01/21 08:58:14;;;;;;;0.60;0.60;;;14.90;44.00;;;;;;5021799;28;20439;-43
2021/01/21 09:01:12;;;;;;;0.77;0.70;;;15.00;44.30;;;;;;5024776;28;20479;-42
2021/01/21 09:03:45;;;;;;;2.30;0.70;;;14.90;43.80;;;;;;5025348;28;20439;-42
2021/01/21 09:06:11;;;;;;;1.03;0.70;;;15.00;44.20;;;;;;5029652;28;20451;-43
2021/01/21 09:08:56;;;;;;;0.67;0.57;;;15.10;43.70;;;;;;5018438;28;20427;-42
2021/01/21 09:11:40;;;;;;;1.20;1.10;;;15.20;43.60;;;;;;5028278;28;20938;-42
2021/01/21 09:14:15;;;;;;;0.87;0.73;;;15.20;44.20;;;;;;5018096;28;20982;-42
2021/01/21 09:16:45;;;;;;;1.03;0.90;;;15.20;43.80;;;;;;5022781;28;20527;-43
2021/01/21 09:19:16;;;;;;;1.17;0.70;;;15.40;43.50;;;;;;5028534;28;20455;-42
2021/01/21 09:22:00;;;;;;;3.30;1.13;;;15.40;43.60;;;;;;5026449;28;20502;-42
2021/01/21 09:24:26;;;;;;;1.00;0.90;;;15.50;43.40;;;;;;5021067;28;20546;-42
2021/01/21 09:27:11;;;;;;;0.70;0.70;;;15.50;43.50;;;;;;5029496;28;20448;-42
2021/01/21 09:30:12;;;;;;;1.00;0.90;;;15.70;43.30;;;;;;5020757;28;20484;-43
2021/01/21 09:32:40;;;;;;;1.07;0.80;;;15.70;43.20;;;;;;5012115;28;20448;-43
2021/01/21 09:35:16;;;;;;;1.00;0.80;;;15.80;43.20;;;;;;5022246;28;20433;-42
2021/01/21 09:37:43;;;;;;;0.80;0.80;;;15.70;43.30;;;;;;5024357;28;20443;-42
2021/01/21 09:40:12;;;;;;;0.80;0.80;;;15.90;43.40;;;;;;5021871;28;20436;-43
2021/01/21 09:42:38;;;;;;;2.30;0.73;;;16.40;43.40;;;;;;5021637;28;20456;-42
2021/01/21 09:45:06;;;;;;;0.90;0.90;;;16.70;42.50;;;;;;5027671;28;20486;-43
2021/01/21 09:47:31;;;;;;;1.43;1.00;;;16.80;41.90;;;;;;5022540;28;20796;-44
2021/01/21 09:49:57;;;;;;;1.00;0.90;;;16.90;42.10;;;;;;5026515;28;20502;-43
2021/01/21 09:52:22;;;;;;;0.70;0.70;;;17.10;41.70;;;;;;5027560;28;20229;-44
2021/01/21 09:54:48;;;;;;;0.83;0.80;;;17.20;41.30;;;;;;5023504;28;20893;-44
2021/01/21 09:57:14;;;;;;;1.00;0.80;;;16.90;41.20;;;;;;5024188;28;20189;-44
2021/01/21 09:59:39;;;;;;;1.33;0.70;;;17.00;41.70;;;;;;5033402;28;20200;-44
2021/01/21 10:02:05;;;;;;;1.90;0.97;;;17.10;41.90;;;;;;5026164;28;20197;-44
2021/01/21 10:04:35;;;;;;;0.90;0.90;;;17.30;41.90;;;;;;5027217;28;20204;-42
2021/01/21 10:07:01;;;;;;;0.70;0.70;;;17.70;41.30;;;;;;5026717;28;20529;-42
2021/01/21 10:09:27;;;;;;;0.80;0.80;;;17.50;40.80;;;;;;5031460;28;20476;-44
2021/01/21 10:11:52;;;;;;;0.80;0.80;;;17.50;41.10;;;;;;5023867;28;20567;-42
2021/01/21 10:14:18;;;;;;;0.70;0.70;;;17.60;41.20;;;;;;5026142;28;20260;-43
2021/01/21 10:16:44;;;;;;;3.30;0.87;;;17.60;41.00;;;;;;5028649;28;20190;-42
2021/01/21 10:19:10;;;;;;;0.80;0.80;;;17.60;41.00;;;;;;5029306;28;20193;-43
2021/01/21 10:21:36;;;;;;;1.33;0.80;;;17.40;40.90;;;;;;5023595;28;20200;-43
2021/01/21 10:24:01;;;;;;;0.70;0.70;;;17.50;41.20;;;;;;5030916;28;20463;-42
2021/01/21 10:26:27;;;;;;;1.13;0.90;;;17.70;41.00;;;;;;5021196;28;20190;-43
2021/01/21 10:28:53;;;;;;;0.80;0.80;;;17.70;40.70;;;;;;5029216;28;20189;-43
2021/01/21 10:31:18;;;;;;;1.20;0.77;;;17.70;40.70;;;;;;5023408;28;20204;-42
2021/01/21 10:33:44;;;;;;;2.17;0.80;;;17.70;40.40;;;;;;5032816;28;20193;-42
2021/01/21 10:36:12;;;;;;;0.80;0.80;;;17.80;40.80;;;;;;5030448;28;20205;-42
2021/01/21 10:38:39;;;;;;;0.70;0.60;;;18.10;40.40;;;;;;5031382;28;20185;-43
2021/01/21 10:41:06;;;;;;;0.67;0.67;;;18.40;39.90;;;;;;5019621;28;20455;-41
2021/01/21 10:43:32;;;;;;;0.70;0.70;;;18.50;39.60;;;;;;5025245;28;20435;-41
2021/01/21 10:45:58;;;;;;;0.80;0.80;;;18.50;39.30;;;;;;5024354;28;20521;-43
2021/01/21 10:48:23;;;;;;;1.03;0.97;;;18.30;39.30;;;;;;5029848;28;20248;-43
2021/01/21 10:50:49;;;;;;;0.70;0.70;;;18.00;40.00;;;;;;5030998;28;20229;-42
2021/01/21 10:53:15;;;;;;;1.23;1.03;;;17.90;40.50;;;;;;5030439;28;20241;-42
2021/01/21 10:55:40;;;;;;;0.97;0.80;;;17.60;40.60;;;;;;5031500;28;20235;-41
2021/01/21 10:58:06;;;;;;;1.30;1.20;;;17.40;41.00;;;;;;5029691;28;20202;-41
2021/01/21 11:00:32;;;;;;;2.47;1.00;;;17.00;41.60;;;;;;5024022;28;20190;-42
2021/01/21 11:02:58;;;;;;;1.00;1.00;;;17.10;42.10;;;;;;5023353;28;20630;-42
2021/01/21 11:05:25;;;;;;;1.27;1.17;;;16.80;42.00;;;;;;5037172;28;20445;-41
2021/01/21 11:07:51;;;;;;;1.20;0.80;;;16.70;42.60;;;;;;5018235;28;20964;-42
2021/01/21 11:10:16;;;;;;;1.47;1.00;;;16.80;42.80;;;;;;5026955;28;20537;-42
2021/01/21 11:12:44;;;;;;;0.80;0.80;;;17.10;42.50;;;;;;5032110;28;20551;-42
2021/01/21 11:15:10;;;;;;;0.70;0.70;;;17.10;42.10;;;;;;5026940;28;20209;-42
2021/01/21 11:17:36;;;;;;;0.93;0.83;;;17.30;42.30;;;;;;5024027;28;20440;-42
2021/01/21 11:20:03;;;;;;;1.20;1.00;;;17.20;42.10;;;;;;5030846;28;20435;-42
2021/01/21 11:22:28;;;;;;;1.13;1.00;;;17.20;42.60;;;;;;5030846;28;20535;-42
2021/01/21 11:24:54;;;;;;;1.10;1.00;;;17.00;42.80;;;;;;5032223;28;20440;-42
2021/01/21 11:27:19;;;;;;;0.97;0.87;;;16.90;42.80;;;;;;5027152;28;20595;-42
2021/01/21 11:29:46;;;;;;;1.00;0.93;;;16.90;42.90;;;;;;5029518;28;20284;-42
2021/01/21 11:32:11;;;;;;;0.80;0.80;;;16.80;43.00;;;;;;5022103;28;20193;-42
2021/01/21 11:34:37;;;;;;;1.47;1.03;;;16.80;43.70;;;;;;5026025;28;20443;-42
2021/01/21 11:37:02;;;;;;;2.17;0.90;;;16.90;43.50;;;;;;5027748;28;20293;-42
2021/01/21 11:39:28;;;;;;;1.63;0.83;;;16.90;43.20;;;;;;5030354;28;20193;-42
2021/01/21 11:41:53;;;;;;;0.80;0.80;;;16.90;43.20;;;;;;5023491;28;20189;-42
2021/01/21 11:44:20;;;;;;;0.93;0.90;;;16.80;43.50;;;;;;5030653;28;20197;-41
2021/01/21 11:46:45;;;;;;;1.13;0.73;;;17.00;43.50;;;;;;5030790;28;20201;-41
2021/01/21 11:49:11;;;;;;;1.70;1.00;;;16.80;43.00;;;;;;5029665;28;20483;-41
2021/01/21 11:51:36;;;;;;;1.73;0.70;;;16.90;43.20;;;;;;5031374;28;20208;-41
2021/01/21 11:54:02;;;;;;;2.93;0.70;;;17.10;43.10;;;;;;5022935;28;20240;-42
2021/01/21 11:56:28;;;;;;;1.17;1.07;;;17.10;42.70;;;;;;5021079;28;20194;-41
2021/01/21 11:58:53;;;;;;;0.90;0.80;;;17.00;42.60;;;;;;5026545;28;20221;-41
2021/01/21 12:01:19;;;;;;;1.00;0.90;;;17.00;43.10;;;;;;5024040;28;20672;-41
2021/01/21 12:03:45;;;;;;;2.13;1.10;;;17.10;43.00;;;;;;5023481;28;20197;-41
2021/01/21 12:06:11;;;;;;;0.90;0.90;;;17.10;42.60;;;;;;5017540;28;20202;-41
2021/01/21 12:08:36;;;;;;;1.63;1.00;;;17.20;42.70;;;;;;5022735;28;20277;-41
2021/01/21 12:11:02;;;;;;;1.67;0.90;;;17.20;42.70;;;;;;5023507;28;20480;-41
2021/01/21 12:13:27;;;;;;;1.10;1.00;;;17.20;42.70;;;;;;5025343;28;20208;-42
2021/01/21 12:15:53;;;;;;;1.10;1.00;;;17.40;42.40;;;;;;5021644;28;20193;-41
2021/01/21 12:18:18;;;;;;;1.00;0.90;;;17.50;42.40;;;;;;5016523;28;20202;-41
2021/01/21 12:20:44;;;;;;;1.87;0.97;;;17.60;42.20;;;;;;5021861;28;20276;-42
2021/01/21 12:23:10;;;;;;;1.13;1.00;;;17.50;42.70;;;;;;5020623;28;20194;-42
2021/01/21 12:25:35;;;;;;;0.70;0.70;;;17.30;42.40;;;;;;5018773;28;20583;-41
2021/01/21 12:28:01;;;;;;;1.10;1.00;;;16.90;42.60;;;;;;5025771;28;20263;-42
2021/01/21 12:30:26;;;;;;;2.77;1.30;;;16.80;42.90;;;;;;5023341;28;21781;-41
2021/01/21 12:32:52;;;;;;;1.00;0.90;;;16.90;43.30;;;;;;5016704;28;20213;-41
2021/01/21 12:35:18;;;;;;;1.40;1.10;;;16.70;43.50;;;;;;5024570;28;20323;-41
2021/01/21 12:37:43;;;;;;;5.10;1.50;;;16.70;43.50;;;;;;5025296;28;20204;-41
2021/01/21 12:40:10;;;;;;;0.80;0.80;;;16.50;43.90;;;;;;5028396;28;20600;-41
2021/01/21 12:42:36;;;;;;;1.30;1.10;;;16.60;44.00;;;;;;5027482;28;20196;-44
2021/01/21 12:45:03;;;;;;;1.00;0.90;;;16.70;43.90;;;;;;5026375;28;20566;-42
2021/01/21 12:47:28;;;;;;;0.80;0.80;;;16.60;43.90;;;;;;5026552;28;20202;-42
2021/01/21 12:49:54;;;;;;;1.20;1.10;;;16.60;43.60;;;;;;5029063;28;20857;-42
2021/01/21 12:52:19;;;;;;;1.70;1.10;;;16.70;43.90;;;;;;5018991;28;20241;-42
2021/01/21 12:54:47;;;;;;;1.40;0.90;;;16.70;43.50;;;;;;5021429;28;20205;-43